sensor_id;sensor_type;location;lat;lon;timestamp;temperature;humidity
51837;DHT22;38941;53.254;6.600;2023-04-01T00:01:11;10.20;99.90
51837;DHT22;38941;53.254;6.600;2023-04-01T00:03:14;10.20;99.90
51837;DHT22;38941;53.254;6.600;2023-04-01T00:05:15;10.20;99.90
51837;DHT22;38941;53.254;6.600;2023-04-01T00:07:16;10.10;99.90
51837;DHT22;38941;53.254;6.600;2023-04-01T00:09:18;10.10;99.90
51837;DHT22;38941;53.254;6.600;2023-04-01T00:11:18;10.20;99.90
51837;DHT22;38941;53.254;6.600;2023-04-01T00:13:20;10.20;99.90
51837;DHT22;38941;53.254;6.600;2023-04-01T00:15:21;10.10;99.90
51837;DHT22;38941;53.254;6.600;2023-04-01T00:17:22;10.10;99.90
51837;DHT22;38941;53.254;6.600;2023-04-01T00:19:25;10.10;99.90
51837;DHT22;38941;53.254;6.600;2023-04-01T00:21:26;10.10;99.90
51837;DHT22;38941;53.254;6.600;2023-04-01T00:23:26;10.10;99.90
51837;DHT22;38941;53.254;6.600;2023-04-01T00:25:31;10.10;99.90
51837;DHT22;38941;53.254;6.600;2023-04-01T00:27:31;10.10;99.90
51837;DHT22;38941;53.254;6.600;2023-04-01T00:29:32;10.10;99.90
51837;DHT22;38941;53.254;6.600;2023-04-01T00:31:33;10.10;99.90
51837;DHT22;38941;53.254;6.600;2023-04-01T00:33:33;10.10;99.90
51837;DHT22;38941;53.254;6.600;2023-04-01T00:35:34;10.10;99.90
51837;DHT22;38941;53.254;6.600;2023-04-01T00:37:38;10.10;99.90
51837;DHT22;38941;53.254;6.600;2023-04-01T00:39:39;10.10;99.90
51837;DHT22;38941;53.254;6.600;2023-04-01T00:41:40;10.10;99.90
51837;DHT22;38941;53.254;6.600;2023-04-01T00:43:42;10.10;99.90
51837;DHT22;38941;53.254;6.600;2023-04-01T00:45:44;10.10;99.90
51837;DHT22;38941;53.254;6.600;2023-04-01T00:47:45;10.10;99.90
51837;DHT22;38941;53.254;6.600;2023-04-01T00:49:49;10.10;99.90
51837;DHT22;38941;53.254;6.600;2023-04-01T00:51:52;10.10;99.90
51837;DHT22;38941;53.254;6.600;2023-04-01T00:53:56;10.10;99.90
51837;DHT22;38941;53.254;6.600;2023-04-01T00:56:05;10.10;99.90
51837;DHT22;38941;53.254;6.600;2023-04-01T00:58:13;10.10;99.90
51837;DHT22;38941;53.254;6.600;2023-04-01T01:00:15;10.10;99.90
51837;DHT22;38941;53.254;6.600;2023-04-01T01:02:17;10.10;99.90
51837;DHT22;38941;53.254;6.600;2023-04-01T01:06:32;10.10;99.90
51837;DHT22;38941;53.254;6.600;2023-04-01T01:08:51;10.10;99.90
51837;DHT22;38941;53.254;6.600;2023-04-01T01:10:52;10.10;99.90
51837;DHT22;38941;53.254;6.600;2023-04-01T01:13:27;10.10;99.90
51837;DHT22;38941;53.254;6.600;2023-04-01T01:27:29;10.00;99.90
51837;DHT22;38941;53.254;6.600;2023-04-01T01:34:36;10.10;99.90
51837;DHT22;38941;53.254;6.600;2023-04-01T01:36:42;10.10;99.90
51837;DHT22;38941;53.254;6.600;2023-04-01T01:38:46;10.10;99.90
51837;DHT22;38941;53.254;6.600;2023-04-01T01:40:50;10.10;99.90
51837;DHT22;38941;53.254;6.600;2023-04-01T01:43:00;10.10;99.90
51837;DHT22;38941;53.254;6.600;2023-04-01T01:45:06;10.10;99.90
51837;DHT22;38941;53.254;6.600;2023-04-01T01:47:08;10.00;99.90
51837;DHT22;38941;53.254;6.600;2023-04-01T01:49:11;10.00;99.90
51837;DHT22;38941;53.254;6.600;2023-04-01T01:51:13;10.00;99.90
51837;DHT22;38941;53.254;6.600;2023-04-01T01:53:14;10.00;99.90
51837;DHT22;38941;53.254;6.600;2023-04-01T01:55:36;10.00;99.90
51837;DHT22;38941;53.254;6.600;2023-04-01T01:57:38;10.10;99.90
51837;DHT22;38941;53.254;6.600;2023-04-01T01:59:40;10.00;99.90
51837;DHT22;38941;53.254;6.600;2023-04-01T02:01:45;10.10;99.90
51837;DHT22;38941;53.254;6.600;2023-04-01T02:03:47;10.10;99.90
51837;DHT22;38941;53.254;6.600;2023-04-01T02:05:51;10.10;99.90
51837;DHT22;38941;53.254;6.600;2023-04-01T02:08:11;10.00;99.90
51837;DHT22;38941;53.254;6.600;2023-04-01T02:10:14;10.00;99.90
51837;DHT22;38941;53.254;6.600;2023-04-01T02:12:16;10.20;99.90
51837;DHT22;38941;53.254;6.600;2023-04-01T02:14:21;10.00;99.90
51837;DHT22;38941;53.254;6.600;2023-04-01T02:16:39;10.10;99.90
51837;DHT22;38941;53.254;6.600;2023-04-01T02:18:45;10.00;99.90
51837;DHT22;38941;53.254;6.600;2023-04-01T02:20:49;10.10;99.90
51837;DHT22;38941;53.254;6.600;2023-04-01T02:22:53;10.00;99.90
51837;DHT22;38941;53.254;6.600;2023-04-01T02:24:59;10.00;99.90
51837;DHT22;38941;53.254;6.600;2023-04-01T02:27:00;10.00;99.90
51837;DHT22;38941;53.254;6.600;2023-04-01T02:29:01;10.00;99.90
51837;DHT22;38941;53.254;6.600;2023-04-01T02:31:05;10.00;99.90
51837;DHT22;38941;53.254;6.600;2023-04-01T02:33:07;10.00;99.90
51837;DHT22;38941;53.254;6.600;2023-04-01T02:35:14;10.00;99.90
51837;DHT22;38941;53.254;6.600;2023-04-01T02:37:16;10.00;99.90
51837;DHT22;38941;53.254;6.600;2023-04-01T02:39:17;9.90;99.90
51837;DHT22;38941;53.254;6.600;2023-04-01T02:41:18;10.00;99.90
51837;DHT22;38941;53.254;6.600;2023-04-01T02:43:19;10.00;99.90
51837;DHT22;38941;53.254;6.600;2023-04-01T02:45:20;9.90;99.90
51837;DHT22;38941;53.254;6.600;2023-04-01T02:47:20;9.90;99.90
51837;DHT22;38941;53.254;6.600;2023-04-01T02:49:21;9.90;99.90
51837;DHT22;38941;53.254;6.600;2023-04-01T02:51:22;9.90;99.90
51837;DHT22;38941;53.254;6.600;2023-04-01T02:53:23;9.90;99.90
51837;DHT22;38941;53.254;6.600;2023-04-01T02:55:24;9.90;99.90
51837;DHT22;38941;53.254;6.600;2023-04-01T02:57:25;9.90;99.90
51837;DHT22;38941;53.254;6.600;2023-04-01T02:59:26;9.90;99.90
51837;DHT22;38941;53.254;6.600;2023-04-01T03:01:27;9.90;99.90
51837;DHT22;38941;53.254;6.600;2023-04-01T03:03:28;10.00;99.90
51837;DHT22;38941;53.254;6.600;2023-04-01T03:05:30;9.90;99.90
51837;DHT22;38941;53.254;6.600;2023-04-01T03:07:31;9.90;99.90
51837;DHT22;38941;53.254;6.600;2023-04-01T03:09:31;9.90;99.90
51837;DHT22;38941;53.254;6.600;2023-04-01T03:11:32;9.90;99.90
51837;DHT22;38941;53.254;6.600;2023-04-01T03:13:33;9.90;99.90
51837;DHT22;38941;53.254;6.600;2023-04-01T03:15:34;9.90;99.90
51837;DHT22;38941;53.254;6.600;2023-04-01T03:17:34;9.90;99.90
51837;DHT22;38941;53.254;6.600;2023-04-01T03:19:35;9.80;99.90
51837;DHT22;38941;53.254;6.600;2023-04-01T03:21:36;9.80;99.90
51837;DHT22;38941;53.254;6.600;2023-04-01T03:23:37;9.80;99.90
51837;DHT22;38941;53.254;6.600;2023-04-01T03:25:37;9.80;99.90
51837;DHT22;38941;53.254;6.600;2023-04-01T03:27:38;9.80;99.90
51837;DHT22;38941;53.254;6.600;2023-04-01T03:29:39;9.80;99.90
51837;DHT22;38941;53.254;6.600;2023-04-01T03:31:40;9.80;99.90
51837;DHT22;38941;53.254;6.600;2023-04-01T03:33:40;9.80;99.90
51837;DHT22;38941;53.254;6.600;2023-04-01T03:35:41;9.80;99.90
51837;DHT22;38941;53.254;6.600;2023-04-01T03:37:42;9.80;99.90
51837;DHT22;38941;53.254;6.600;2023-04-01T03:39:42;9.80;99.90
51837;DHT22;38941;53.254;6.600;2023-04-01T03:41:43;9.80;99.90
51837;DHT22;38941;53.254;6.600;2023-04-01T03:43:44;9.70;99.90
51837;DHT22;38941;53.254;6.600;2023-04-01T03:45:47;9.80;99.90
51837;DHT22;38941;53.254;6.600;2023-04-01T03:47:48;9.80;99.90
51837;DHT22;38941;53.254;6.600;2023-04-01T03:49:49;9.80;99.90
51837;DHT22;38941;53.254;6.600;2023-04-01T03:51:50;9.70;99.90
51837;DHT22;38941;53.254;6.600;2023-04-01T03:53:51;9.80;99.90
51837;DHT22;38941;53.254;6.600;2023-04-01T03:55:52;9.70;99.90
51837;DHT22;38941;53.254;6.600;2023-04-01T03:57:52;9.70;99.90
51837;DHT22;38941;53.254;6.600;2023-04-01T03:59:53;9.80;99.90
51837;DHT22;38941;53.254;6.600;2023-04-01T04:01:56;9.80;99.90
51837;DHT22;38941;53.254;6.600;2023-04-01T04:03:58;9.80;99.90
51837;DHT22;38941;53.254;6.600;2023-04-01T04:05:59;9.70;99.90
51837;DHT22;38941;53.254;6.600;2023-04-01T04:08:00;9.70;99.90
51837;DHT22;38941;53.254;6.600;2023-04-01T04:10:01;9.80;99.90
51837;DHT22;38941;53.254;6.600;2023-04-01T04:12:01;9.80;99.90
51837;DHT22;38941;53.254;6.600;2023-04-01T04:14:02;9.80;99.90
51837;DHT22;38941;53.254;6.600;2023-04-01T04:16:03;9.80;99.90
51837;DHT22;38941;53.254;6.600;2023-04-01T04:18:04;9.70;99.90
51837;DHT22;38941;53.254;6.600;2023-04-01T04:20:06;9.70;99.90
51837;DHT22;38941;53.254;6.600;2023-04-01T04:22:08;9.80;99.90
51837;DHT22;38941;53.254;6.600;2023-04-01T04:24:09;9.80;99.90
51837;DHT22;38941;53.254;6.600;2023-04-01T04:26:12;9.70;99.90
51837;DHT22;38941;53.254;6.600;2023-04-01T04:28:13;9.80;99.90
51837;DHT22;38941;53.254;6.600;2023-04-01T04:30:14;9.80;99.90
51837;DHT22;38941;53.254;6.600;2023-04-01T04:32:15;9.80;99.90
51837;DHT22;38941;53.254;6.600;2023-04-01T04:34:16;9.80;99.90
51837;DHT22;38941;53.254;6.600;2023-04-01T04:36:19;9.80;99.90
51837;DHT22;38941;53.254;6.600;2023-04-01T04:38:22;9.80;99.90
51837;DHT22;38941;53.254;6.600;2023-04-01T04:40:22;9.80;99.90
51837;DHT22;38941;53.254;6.600;2023-04-01T04:42:23;9.80;99.90
51837;DHT22;38941;53.254;6.600;2023-04-01T04:44:24;9.80;99.90
51837;DHT22;38941;53.254;6.600;2023-04-01T04:46:25;9.80;99.90
51837;DHT22;38941;53.254;6.600;2023-04-01T04:48:26;9.80;99.90
51837;DHT22;38941;53.254;6.600;2023-04-01T04:50:26;9.80;99.90
51837;DHT22;38941;53.254;6.600;2023-04-01T04:52:27;9.80;99.90
51837;DHT22;38941;53.254;6.600;2023-04-01T04:54:29;9.80;99.90
51837;DHT22;38941;53.254;6.600;2023-04-01T04:56:30;9.80;99.90
51837;DHT22;38941;53.254;6.600;2023-04-01T04:58:31;9.80;99.90
51837;DHT22;38941;53.254;6.600;2023-04-01T05:00:32;9.80;99.90
51837;DHT22;38941;53.254;6.600;2023-04-01T05:02:33;9.90;99.90
51837;DHT22;38941;53.254;6.600;2023-04-01T05:04:35;9.80;99.90
51837;DHT22;38941;53.254;6.600;2023-04-01T05:06:37;9.80;99.90
51837;DHT22;38941;53.254;6.600;2023-04-01T05:08:38;9.80;99.90
51837;DHT22;38941;53.254;6.600;2023-04-01T05:10:40;9.90;99.90
51837;DHT22;38941;53.254;6.600;2023-04-01T05:12:41;9.90;99.90
51837;DHT22;38941;53.254;6.600;2023-04-01T05:14:41;9.80;99.90
51837;DHT22;38941;53.254;6.600;2023-04-01T05:16:42;9.80;99.90
51837;DHT22;38941;53.254;6.600;2023-04-01T05:18:43;9.90;99.90
51837;DHT22;38941;53.254;6.600;2023-04-01T05:20:52;9.90;99.90
51837;DHT22;38941;53.254;6.600;2023-04-01T05:22:56;9.80;99.90
51837;DHT22;38941;53.254;6.600;2023-04-01T05:24:57;9.90;99.90
51837;DHT22;38941;53.254;6.600;2023-04-01T05:26:59;9.90;99.90
51837;DHT22;38941;53.254;6.600;2023-04-01T05:28:59;9.90;99.90
51837;DHT22;38941;53.254;6.600;2023-04-01T05:31:01;9.80;99.90
51837;DHT22;38941;53.254;6.600;2023-04-01T05:33:02;9.90;99.90
51837;DHT22;38941;53.254;6.600;2023-04-01T05:35:03;9.90;99.90
51837;DHT22;38941;53.254;6.600;2023-04-01T05:37:03;9.90;99.90
51837;DHT22;38941;53.254;6.600;2023-04-01T05:39:04;9.90;99.90
51837;DHT22;38941;53.254;6.600;2023-04-01T05:41:05;9.90;99.90
51837;DHT22;38941;53.254;6.600;2023-04-01T05:43:06;9.90;99.90
51837;DHT22;38941;53.254;6.600;2023-04-01T05:45:07;9.90;99.90
51837;DHT22;38941;53.254;6.600;2023-04-01T05:47:09;9.90;99.90
51837;DHT22;38941;53.254;6.600;2023-04-01T05:49:09;9.90;99.90
51837;DHT22;38941;53.254;6.600;2023-04-01T05:51:16;9.90;99.90
51837;DHT22;38941;53.254;6.600;2023-04-01T05:53:17;9.90;99.90
51837;DHT22;38941;53.254;6.600;2023-04-01T05:55:18;9.90;99.90
51837;DHT22;38941;53.254;6.600;2023-04-01T05:57:18;9.90;99.90
51837;DHT22;38941;53.254;6.600;2023-04-01T05:59:19;9.90;99.90
51837;DHT22;38941;53.254;6.600;2023-04-01T06:01:20;9.90;99.90
51837;DHT22;38941;53.254;6.600;2023-04-01T06:03:21;9.90;99.90
51837;DHT22;38941;53.254;6.600;2023-04-01T06:05:24;9.90;99.90
51837;DHT22;38941;53.254;6.600;2023-04-01T06:07:27;9.90;99.90
51837;DHT22;38941;53.254;6.600;2023-04-01T06:09:29;10.00;99.90
51837;DHT22;38941;53.254;6.600;2023-04-01T06:11:41;10.00;99.90
51837;DHT22;38941;53.254;6.600;2023-04-01T06:16:32;10.00;99.90
51837;DHT22;38941;53.254;6.600;2023-04-01T06:30:38;10.20;99.90
51837;DHT22;38941;53.254;6.600;2023-04-01T06:32:51;10.20;99.90
51837;DHT22;38941;53.254;6.600;2023-04-01T06:42:41;10.20;99.90
51837;DHT22;38941;53.254;6.600;2023-04-01T06:44:53;10.20;99.90
51837;DHT22;38941;53.254;6.600;2023-04-01T06:47:15;10.20;99.90
51837;DHT22;38941;53.254;6.600;2023-04-01T06:56:06;10.30;99.90
51837;DHT22;38941;53.254;6.600;2023-04-01T07:00:44;10.30;99.90
51837;DHT22;38941;53.254;6.600;2023-04-01T07:02:56;10.40;99.90
51837;DHT22;38941;53.254;6.600;2023-04-01T07:05:01;10.40;99.90
51837;DHT22;38941;53.254;6.600;2023-04-01T07:09:16;10.40;99.90
51837;DHT22;38941;53.254;6.600;2023-04-01T07:11:31;10.40;99.90
51837;DHT22;38941;53.254;6.600;2023-04-01T07:13:36;10.40;99.90
51837;DHT22;38941;53.254;6.600;2023-04-01T07:15:42;10.40;99.90
51837;DHT22;38941;53.254;6.600;2023-04-01T07:17:45;10.40;99.90
51837;DHT22;38941;53.254;6.600;2023-04-01T07:22:00;10.50;99.90
51837;DHT22;38941;53.254;6.600;2023-04-01T07:24:09;10.60;99.90
51837;DHT22;38941;53.254;6.600;2023-04-01T07:26:20;10.60;99.90
51837;DHT22;38941;53.254;6.600;2023-04-01T07:28:21;10.70;99.90
51837;DHT22;38941;53.254;6.600;2023-04-01T07:30:24;10.70;99.90
51837;DHT22;38941;53.254;6.600;2023-04-01T07:32:44;10.70;99.90
51837;DHT22;38941;53.254;6.600;2023-04-01T07:37:29;10.70;99.90
51837;DHT22;38941;53.254;6.600;2023-04-01T07:39:44;10.80;99.90
51837;DHT22;38941;53.254;6.600;2023-04-01T07:44:16;11.00;99.90
51837;DHT22;38941;53.254;6.600;2023-04-01T07:55:37;11.30;99.90
51837;DHT22;38941;53.254;6.600;2023-04-01T08:08:56;11.50;99.90
51837;DHT22;38941;53.254;6.600;2023-04-01T08:20:50;11.80;99.90
51837;DHT22;38941;53.254;6.600;2023-04-01T08:25:20;11.80;99.90
51837;DHT22;38941;53.254;6.600;2023-04-01T08:32:15;11.70;99.90
51837;DHT22;38941;53.254;6.600;2023-04-01T08:34:21;11.70;99.90
51837;DHT22;38941;53.254;6.600;2023-04-01T08:36:32;11.70;99.90
51837;DHT22;38941;53.254;6.600;2023-04-01T08:38:50;11.70;99.90
51837;DHT22;38941;53.254;6.600;2023-04-01T08:41:21;11.60;99.90
51837;DHT22;38941;53.254;6.600;2023-04-01T08:43:32;11.60;99.90
51837;DHT22;38941;53.254;6.600;2023-04-01T08:53:09;11.30;99.90
51837;DHT22;38941;53.254;6.600;2023-04-01T09:14:25;10.90;99.90
51837;DHT22;38941;53.254;6.600;2023-04-01T09:16:55;10.90;99.90
51837;DHT22;38941;53.254;6.600;2023-04-01T09:19:28;10.80;99.90
51837;DHT22;38941;53.254;6.600;2023-04-01T09:22:01;10.90;99.90
51837;DHT22;38941;53.254;6.600;2023-04-01T09:33:51;11.20;99.90
51837;DHT22;38941;53.254;6.600;2023-04-01T09:38:30;11.10;99.90
51837;DHT22;38941;53.254;6.600;2023-04-01T09:52:06;10.90;99.90
51837;DHT22;38941;53.254;6.600;2023-04-01T10:24:23;10.40;99.90
51837;DHT22;38941;53.254;6.600;2023-04-01T10:33:43;10.40;99.90
51837;DHT22;38941;53.254;6.600;2023-04-01T11:31:04;10.40;99.90
51837;DHT22;38941;53.254;6.600;2023-04-01T11:35:32;10.50;99.90
51837;DHT22;38941;53.254;6.600;2023-04-01T11:44:23;10.60;99.90
51837;DHT22;38941;53.254;6.600;2023-04-01T11:46:46;10.70;99.90
51837;DHT22;38941;53.254;6.600;2023-04-01T11:48:58;10.70;99.90
51837;DHT22;38941;53.254;6.600;2023-04-01T11:56:38;10.70;99.90
51837;DHT22;38941;53.254;6.600;2023-04-01T12:03:36;10.80;99.90
51837;DHT22;38941;53.254;6.600;2023-04-01T12:05:44;10.80;99.90
51837;DHT22;38941;53.254;6.600;2023-04-01T12:08:02;10.80;99.90
51837;DHT22;38941;53.254;6.600;2023-04-01T12:10:27;10.70;99.90
51837;DHT22;38941;53.254;6.600;2023-04-01T12:12:41;10.70;99.90
51837;DHT22;38941;53.254;6.600;2023-04-01T12:19:44;10.80;99.90
51837;DHT22;38941;53.254;6.600;2023-04-01T12:22:13;10.80;99.90
51837;DHT22;38941;53.254;6.600;2023-04-01T12:38:08;10.70;99.90
51837;DHT22;38941;53.254;6.600;2023-04-01T12:49:47;10.70;99.90
51837;DHT22;38941;53.254;6.600;2023-04-01T13:02:12;10.80;99.90
51837;DHT22;38941;53.254;6.600;2023-04-01T13:06:32;10.80;99.90
51837;DHT22;38941;53.254;6.600;2023-04-01T13:15:43;10.70;99.90
51837;DHT22;38941;53.254;6.600;2023-04-01T13:22:17;10.60;99.90
51837;DHT22;38941;53.254;6.600;2023-04-01T13:33:26;10.60;99.90
51837;DHT22;38941;53.254;6.600;2023-04-01T13:36:07;10.70;99.90
51837;DHT22;38941;53.254;6.600;2023-04-01T13:38:31;10.70;99.90
51837;DHT22;38941;53.254;6.600;2023-04-01T13:45:22;10.70;99.90
51837;DHT22;38941;53.254;6.600;2023-04-01T13:50:04;10.50;99.90
51837;DHT22;38941;53.254;6.600;2023-04-01T13:52:29;10.50;99.90
51837;DHT22;38941;53.254;6.600;2023-04-01T14:04:19;10.30;99.90
51837;DHT22;38941;53.254;6.600;2023-04-01T14:06:05;10.20;99.90
51837;DHT22;38941;53.254;6.600;2023-04-01T14:10:48;10.10;99.90
51837;DHT22;38941;53.254;6.600;2023-04-01T14:15:40;10.10;99.90
51837;DHT22;38941;53.254;6.600;2023-04-01T14:20:14;10.00;99.90
51837;DHT22;38941;53.254;6.600;2023-04-01T14:22:32;10.00;99.90
51837;DHT22;38941;53.254;6.600;2023-04-01T14:27:41;9.90;99.90
51837;DHT22;38941;53.254;6.600;2023-04-01T14:32:32;9.90;99.90
51837;DHT22;38941;53.254;6.600;2023-04-01T14:35:11;9.80;99.90
51837;DHT22;38941;53.254;6.600;2023-04-01T14:42:03;9.70;99.90
51837;DHT22;38941;53.254;6.600;2023-04-01T14:44:17;9.70;99.90
51837;DHT22;38941;53.254;6.600;2023-04-01T14:48:57;9.70;99.90
51837;DHT22;38941;53.254;6.600;2023-04-01T14:51:16;9.60;99.90
51837;DHT22;38941;53.254;6.600;2023-04-01T14:57:42;9.50;99.90
51837;DHT22;38941;53.254;6.600;2023-04-01T14:59:51;9.50;99.90
51837;DHT22;38941;53.254;6.600;2023-04-01T15:07:00;9.40;99.90
51837;DHT22;38941;53.254;6.600;2023-04-01T15:11:33;9.30;99.90
51837;DHT22;38941;53.254;6.600;2023-04-01T15:18:08;9.30;99.90
51837;DHT22;38941;53.254;6.600;2023-04-01T15:21:01;9.30;99.90
51837;DHT22;38941;53.254;6.600;2023-04-01T15:25:18;9.20;99.90
51837;DHT22;38941;53.254;6.600;2023-04-01T15:29:59;9.00;99.90
51837;DHT22;38941;53.254;6.600;2023-04-01T15:32:25;9.00;99.90
51837;DHT22;38941;53.254;6.600;2023-04-01T15:37:04;8.90;99.90
51837;DHT22;38941;53.254;6.600;2023-04-01T15:41:15;8.80;99.90
51837;DHT22;38941;53.254;6.600;2023-04-01T15:50:37;8.70;99.90
51837;DHT22;38941;53.254;6.600;2023-04-01T16:02:18;8.50;99.90
51837;DHT22;38941;53.254;6.600;2023-04-01T16:07:01;8.40;99.90
51837;DHT22;38941;53.254;6.600;2023-04-01T16:09:32;8.40;99.90
51837;DHT22;38941;53.254;6.600;2023-04-01T16:11:52;8.30;99.90
51837;DHT22;38941;53.254;6.600;2023-04-01T16:17:01;8.30;99.90
51837;DHT22;38941;53.254;6.600;2023-04-01T16:21:14;8.30;99.90
51837;DHT22;38941;53.254;6.600;2023-04-01T16:23:47;8.20;99.90
51837;DHT22;38941;53.254;6.600;2023-04-01T16:32:44;8.10;99.90
51837;DHT22;38941;53.254;6.600;2023-04-01T16:37:32;8.10;99.90
51837;DHT22;38941;53.254;6.600;2023-04-01T16:39:41;8.00;99.90
51837;DHT22;38941;53.254;6.600;2023-04-01T16:41:50;8.00;99.90
51837;DHT22;38941;53.254;6.600;2023-04-01T16:44:22;8.00;99.90
51837;DHT22;38941;53.254;6.600;2023-04-01T16:48:49;7.90;99.90
51837;DHT22;38941;53.254;6.600;2023-04-01T16:50:59;7.90;99.90
51837;DHT22;38941;53.254;6.600;2023-04-01T16:55:44;8.00;99.90
51837;DHT22;38941;53.254;6.600;2023-04-01T16:57:57;7.80;99.90
51837;DHT22;38941;53.254;6.600;2023-04-01T17:02:23;7.80;99.90
51837;DHT22;38941;53.254;6.600;2023-04-01T17:04:45;7.80;99.90
51837;DHT22;38941;53.254;6.600;2023-04-01T17:06:54;7.80;99.90
51837;DHT22;38941;53.254;6.600;2023-04-01T17:09:18;7.80;99.90
51837;DHT22;38941;53.254;6.600;2023-04-01T17:11:27;7.70;99.90
51837;DHT22;38941;53.254;6.600;2023-04-01T17:13:41;7.70;99.90
51837;DHT22;38941;53.254;6.600;2023-04-01T17:21:04;7.60;99.90
51837;DHT22;38941;53.254;6.600;2023-04-01T17:23:14;7.60;99.90
51837;DHT22;38941;53.254;6.600;2023-04-01T17:25:34;7.50;99.90
51837;DHT22;38941;53.254;6.600;2023-04-01T17:32:21;7.40;99.90
51837;DHT22;38941;53.254;6.600;2023-04-01T17:37:06;7.40;99.90
51837;DHT22;38941;53.254;6.600;2023-04-01T17:39:37;7.40;99.90
51837;DHT22;38941;53.254;6.600;2023-04-01T17:42:06;7.40;99.90
51837;DHT22;38941;53.254;6.600;2023-04-01T17:51:28;7.30;99.90
51837;DHT22;38941;53.254;6.600;2023-04-01T18:00:33;7.30;99.90
51837;DHT22;38941;53.254;6.600;2023-04-01T18:04:51;7.10;99.90
51837;DHT22;38941;53.254;6.600;2023-04-01T18:11:58;7.10;99.90
51837;DHT22;38941;53.254;6.600;2023-04-01T18:16:37;7.10;99.90
51837;DHT22;38941;53.254;6.600;2023-04-01T18:23:27;7.00;99.90
51837;DHT22;38941;53.254;6.600;2023-04-01T18:27:47;7.10;99.90
51837;DHT22;38941;53.254;6.600;2023-04-01T18:30:40;7.00;99.90
51837;DHT22;38941;53.254;6.600;2023-04-01T18:32:24;7.00;99.90
51837;DHT22;38941;53.254;6.600;2023-04-01T18:37:02;6.90;99.90
51837;DHT22;38941;53.254;6.600;2023-04-01T18:39:12;6.90;99.90
51837;DHT22;38941;53.254;6.600;2023-04-01T18:41:15;6.90;99.90
51837;DHT22;38941;53.254;6.600;2023-04-01T18:45:58;6.80;99.90
51837;DHT22;38941;53.254;6.600;2023-04-01T18:52:42;6.70;99.90
51837;DHT22;38941;53.254;6.600;2023-04-01T18:57:14;6.70;99.90
51837;DHT22;38941;53.254;6.600;2023-04-01T18:59:34;6.60;99.90
51837;DHT22;38941;53.254;6.600;2023-04-01T19:02:05;6.60;99.90
51837;DHT22;38941;53.254;6.600;2023-04-01T19:06:53;6.60;99.90
51837;DHT22;38941;53.254;6.600;2023-04-01T19:08:56;6.80;99.90
51837;DHT22;38941;53.254;6.600;2023-04-01T19:11:29;6.60;99.90
51837;DHT22;38941;53.254;6.600;2023-04-01T19:20:47;6.50;99.90
51837;DHT22;38941;53.254;6.600;2023-04-01T19:23:39;6.50;99.90
51837;DHT22;38941;53.254;6.600;2023-04-01T19:26:15;6.50;99.90
51837;DHT22;38941;53.254;6.600;2023-04-01T19:29:25;6.40;99.90
51837;DHT22;38941;53.254;6.600;2023-04-01T19:31:02;6.40;99.90
51837;DHT22;38941;53.254;6.600;2023-04-01T19:44:43;6.30;99.90
51837;DHT22;38941;53.254;6.600;2023-04-01T19:49:41;6.30;99.90
51837;DHT22;38941;53.254;6.600;2023-04-01T19:54:04;6.20;99.90
51837;DHT22;38941;53.254;6.600;2023-04-01T19:56:23;6.20;99.90
51837;DHT22;38941;53.254;6.600;2023-04-01T19:58:37;6.20;99.90
51837;DHT22;38941;53.254;6.600;2023-04-01T20:00:49;6.20;99.90
51837;DHT22;38941;53.254;6.600;2023-04-01T20:05:34;6.20;99.90
51837;DHT22;38941;53.254;6.600;2023-04-01T20:07:45;6.10;99.90
51837;DHT22;38941;53.254;6.600;2023-04-01T20:14:19;6.10;99.90
51837;DHT22;38941;53.254;6.600;2023-04-01T20:19:02;6.10;99.90
51837;DHT22;38941;53.254;6.600;2023-04-01T20:25:55;6.00;99.90
51837;DHT22;38941;53.254;6.600;2023-04-01T20:28:22;6.00;99.90
51837;DHT22;38941;53.254;6.600;2023-04-01T20:35:21;6.00;99.90
51837;DHT22;38941;53.254;6.600;2023-04-01T20:37:48;6.00;99.90
51837;DHT22;38941;53.254;6.600;2023-04-01T20:40:03;6.00;99.90
51837;DHT22;38941;53.254;6.600;2023-04-01T20:47:41;5.90;99.90
51837;DHT22;38941;53.254;6.600;2023-04-01T20:57:20;5.80;99.90
51837;DHT22;38941;53.254;6.600;2023-04-01T20:59:34;5.80;99.90
51837;DHT22;38941;53.254;6.600;2023-04-01T21:18:21;5.70;99.90
51837;DHT22;38941;53.254;6.600;2023-04-01T21:27:48;5.70;99.90
51837;DHT22;38941;53.254;6.600;2023-04-01T21:49:21;5.60;99.90
51837;DHT22;38941;53.254;6.600;2023-04-01T21:56:22;5.60;99.90
51837;DHT22;38941;53.254;6.600;2023-04-01T22:05:30;5.50;99.90
51837;DHT22;38941;53.254;6.600;2023-04-01T22:14:43;5.50;99.90
51837;DHT22;38941;53.254;6.600;2023-04-01T22:16:57;6.20;99.90
51837;DHT22;38941;53.254;6.600;2023-04-01T22:27:52;5.20;99.90
51837;DHT22;38941;53.254;6.600;2023-04-01T22:30:10;5.20;99.90
51837;DHT22;38941;53.254;6.600;2023-04-01T22:50:36;5.00;99.90
51837;DHT22;38941;53.254;6.600;2023-04-01T22:52:46;5.00;99.90
51837;DHT22;38941;53.254;6.600;2023-04-01T22:54:53;4.90;99.90
51837;DHT22;38941;53.254;6.600;2023-04-01T22:57:05;4.90;99.90
51837;DHT22;38941;53.254;6.600;2023-04-01T23:01:57;4.90;99.90
51837;DHT22;38941;53.254;6.600;2023-04-01T23:04:03;4.80;99.90
51837;DHT22;38941;53.254;6.600;2023-04-01T23:06:15;4.80;99.90
51837;DHT22;38941;53.254;6.600;2023-04-01T23:10:58;4.70;99.90
51837;DHT22;38941;53.254;6.600;2023-04-01T23:13:01;5.10;99.90
51837;DHT22;38941;53.254;6.600;2023-04-01T23:15:13;4.70;99.90
51837;DHT22;38941;53.254;6.600;2023-04-01T23:17:35;4.70;99.90
51837;DHT22;38941;53.254;6.600;2023-04-01T23:22:49;4.70;99.90
51837;DHT22;38941;53.254;6.600;2023-04-01T23:26:46;4.60;99.90
51837;DHT22;38941;53.254;6.600;2023-04-01T23:28:55;4.60;99.90
51837;DHT22;38941;53.254;6.600;2023-04-01T23:30:57;4.50;99.90
51837;DHT22;38941;53.254;6.600;2023-04-01T23:37:26;4.40;99.90
51837;DHT22;38941;53.254;6.600;2023-04-01T23:39:41;4.40;99.90
51837;DHT22;38941;53.254;6.600;2023-04-01T23:41:44;4.30;99.90
51837;DHT22;38941;53.254;6.600;2023-04-01T23:43:58;4.30;99.90
51837;DHT22;38941;53.254;6.600;2023-04-01T23:46:06;4.40;99.90
51837;DHT22;38941;53.254;6.600;2023-04-01T23:48:13;4.20;99.90
51837;DHT22;38941;53.254;6.600;2023-04-01T23:50:25;4.50;99.90
51837;DHT22;38941;53.254;6.600;2023-04-01T23:52:30;4.10;99.90
51837;DHT22;38941;53.254;6.600;2023-04-01T23:54:56;4.00;99.90
51837;DHT22;38941;53.254;6.600;2023-04-01T23:59:03;3.90;99.90
